sensor_id;sensor_type;location;lat;lon;timestamp;temperature;humidity
13880;DHT22;7010;48.200;16.332;2022-10-03T00:00:08;12.10;99.90
13880;DHT22;7010;48.200;16.332;2022-10-03T00:03:06;12.10;99.90
13880;DHT22;7010;48.200;16.332;2022-10-03T00:05:56;12.00;99.90
13880;DHT22;7010;48.200;16.332;2022-10-03T00:08:49;12.00;99.90
13880;DHT22;7010;48.200;16.332;2022-10-03T00:11:31;12.00;99.90
13880;DHT22;7010;48.200;16.332;2022-10-03T00:14:11;12.00;99.90
13880;DHT22;7010;48.200;16.332;2022-10-03T00:16:47;12.00;99.90
13880;DHT22;7010;48.200;16.332;2022-10-03T00:19:25;12.00;99.90
13880;DHT22;7010;48.200;16.332;2022-10-03T00:22:06;12.00;99.90
13880;DHT22;7010;48.200;16.332;2022-10-03T00:24:48;12.00;99.90
13880;DHT22;7010;48.200;16.332;2022-10-03T00:27:26;12.00;99.90
13880;DHT22;7010;48.200;16.332;2022-10-03T00:30:04;12.00;99.90
13880;DHT22;7010;48.200;16.332;2022-10-03T00:32:45;12.00;99.90
13880;DHT22;7010;48.200;16.332;2022-10-03T00:35:34;12.00;99.90
13880;DHT22;7010;48.200;16.332;2022-10-03T00:38:16;12.00;99.90
13880;DHT22;7010;48.200;16.332;2022-10-03T00:41:11;12.00;99.90
13880;DHT22;7010;48.200;16.332;2022-10-03T00:44:07;12.00;99.90
13880;DHT22;7010;48.200;16.332;2022-10-03T00:50:05;12.00;99.90
13880;DHT22;7010;48.200;16.332;2022-10-03T00:56:05;12.00;99.90
13880;DHT22;7010;48.200;16.332;2022-10-03T00:58:53;12.00;99.90
13880;DHT22;7010;48.200;16.332;2022-10-03T01:01:32;12.00;99.90
13880;DHT22;7010;48.200;16.332;2022-10-03T01:07:08;11.90;99.90
13880;DHT22;7010;48.200;16.332;2022-10-03T01:09:55;12.00;99.90
13880;DHT22;7010;48.200;16.332;2022-10-03T01:12:36;12.00;99.90
13880;DHT22;7010;48.200;16.332;2022-10-03T01:15:19;12.00;99.90
13880;DHT22;7010;48.200;16.332;2022-10-03T01:17:59;12.00;99.90
13880;DHT22;7010;48.200;16.332;2022-10-03T01:20:39;12.00;99.90
13880;DHT22;7010;48.200;16.332;2022-10-03T01:23:32;12.00;99.90
13880;DHT22;7010;48.200;16.332;2022-10-03T01:26:17;12.00;99.90
13880;DHT22;7010;48.200;16.332;2022-10-03T01:28:52;12.00;99.90
13880;DHT22;7010;48.200;16.332;2022-10-03T01:31:43;12.00;99.90
13880;DHT22;7010;48.200;16.332;2022-10-03T01:34:21;12.00;99.90
13880;DHT22;7010;48.200;16.332;2022-10-03T01:36:59;12.00;99.90
13880;DHT22;7010;48.200;16.332;2022-10-03T01:39:35;12.10;99.90
13880;DHT22;7010;48.200;16.332;2022-10-03T01:42:09;12.10;99.90
13880;DHT22;7010;48.200;16.332;2022-10-03T01:44:52;12.10;99.90
13880;DHT22;7010;48.200;16.332;2022-10-03T01:47:26;12.10;99.90
13880;DHT22;7010;48.200;16.332;2022-10-03T01:50:04;12.10;99.90
13880;DHT22;7010;48.200;16.332;2022-10-03T01:52:40;12.10;99.90
13880;DHT22;7010;48.200;16.332;2022-10-03T01:55:19;12.10;99.90
13880;DHT22;7010;48.200;16.332;2022-10-03T01:57:54;12.10;99.90
13880;DHT22;7010;48.200;16.332;2022-10-03T02:00:33;12.10;99.90
13880;DHT22;7010;48.200;16.332;2022-10-03T02:03:08;12.10;99.90
13880;DHT22;7010;48.200;16.332;2022-10-03T02:05:48;12.10;99.90
13880;DHT22;7010;48.200;16.332;2022-10-03T02:08:25;12.10;99.90
13880;DHT22;7010;48.200;16.332;2022-10-03T02:11:00;12.10;99.90
13880;DHT22;7010;48.200;16.332;2022-10-03T02:13:39;12.10;99.90
13880;DHT22;7010;48.200;16.332;2022-10-03T02:16:16;12.20;99.90
13880;DHT22;7010;48.200;16.332;2022-10-03T02:18:52;12.20;99.90
13880;DHT22;7010;48.200;16.332;2022-10-03T02:21:25;12.20;99.90
13880;DHT22;7010;48.200;16.332;2022-10-03T02:24:10;12.20;99.90
13880;DHT22;7010;48.200;16.332;2022-10-03T02:27:04;12.20;99.90
13880;DHT22;7010;48.200;16.332;2022-10-03T02:33:35;12.30;99.90
13880;DHT22;7010;48.200;16.332;2022-10-03T02:36:31;12.30;99.90
13880;DHT22;7010;48.200;16.332;2022-10-03T02:39:26;12.30;99.90
13880;DHT22;7010;48.200;16.332;2022-10-03T02:45:19;12.30;99.90
13880;DHT22;7010;48.200;16.332;2022-10-03T02:51:41;12.20;99.90
13880;DHT22;7010;48.200;16.332;2022-10-03T02:54:56;12.20;99.90
13880;DHT22;7010;48.200;16.332;2022-10-03T02:57:54;12.10;99.90
13880;DHT22;7010;48.200;16.332;2022-10-03T03:00:35;12.10;99.90
13880;DHT22;7010;48.200;16.332;2022-10-03T03:03:39;12.10;99.90
13880;DHT22;7010;48.200;16.332;2022-10-03T03:06:42;12.10;99.90
13880;DHT22;7010;48.200;16.332;2022-10-03T03:09:43;12.10;99.90
13880;DHT22;7010;48.200;16.332;2022-10-03T03:12:43;12.10;99.90
13880;DHT22;7010;48.200;16.332;2022-10-03T03:15:58;12.10;99.90
13880;DHT22;7010;48.200;16.332;2022-10-03T03:18:34;12.10;99.90
13880;DHT22;7010;48.200;16.332;2022-10-03T03:21:19;12.20;99.90
13880;DHT22;7010;48.200;16.332;2022-10-03T03:24:11;12.20;99.90
13880;DHT22;7010;48.200;16.332;2022-10-03T03:27:01;12.20;99.90
13880;DHT22;7010;48.200;16.332;2022-10-03T03:29:40;12.20;99.90
13880;DHT22;7010;48.200;16.332;2022-10-03T03:32:18;12.20;99.90
13880;DHT22;7010;48.200;16.332;2022-10-03T03:34:56;12.20;99.90
13880;DHT22;7010;48.200;16.332;2022-10-03T03:37:33;12.20;99.90
13880;DHT22;7010;48.200;16.332;2022-10-03T03:40:16;12.20;99.90
13880;DHT22;7010;48.200;16.332;2022-10-03T03:43:00;12.10;99.90
13880;DHT22;7010;48.200;16.332;2022-10-03T03:45:42;12.10;99.90
13880;DHT22;7010;48.200;16.332;2022-10-03T03:48:45;12.10;99.90
13880;DHT22;7010;48.200;16.332;2022-10-03T03:51:26;12.10;99.90
13880;DHT22;7010;48.200;16.332;2022-10-03T03:54:24;12.10;99.90
13880;DHT22;7010;48.200;16.332;2022-10-03T04:00:06;12.10;99.90
13880;DHT22;7010;48.200;16.332;2022-10-03T04:03:02;12.00;99.90
13880;DHT22;7010;48.200;16.332;2022-10-03T04:05:48;12.00;99.90
13880;DHT22;7010;48.200;16.332;2022-10-03T04:08:37;12.00;99.90
13880;DHT22;7010;48.200;16.332;2022-10-03T04:11:18;12.00;99.90
13880;DHT22;7010;48.200;16.332;2022-10-03T04:14:18;12.00;99.90
13880;DHT22;7010;48.200;16.332;2022-10-03T04:17:11;12.00;99.90
13880;DHT22;7010;48.200;16.332;2022-10-03T04:20:11;11.90;99.90
13880;DHT22;7010;48.200;16.332;2022-10-03T04:22:52;11.90;99.90
13880;DHT22;7010;48.200;16.332;2022-10-03T04:25:41;11.90;99.90
13880;DHT22;7010;48.200;16.332;2022-10-03T04:28:29;11.90;99.90
13880;DHT22;7010;48.200;16.332;2022-10-03T04:31:18;11.90;99.90
13880;DHT22;7010;48.200;16.332;2022-10-03T04:34:03;11.80;99.90
13880;DHT22;7010;48.200;16.332;2022-10-03T04:36:52;11.80;99.90
13880;DHT22;7010;48.200;16.332;2022-10-03T04:39:30;11.80;99.90
13880;DHT22;7010;48.200;16.332;2022-10-03T04:42:11;11.80;99.90
13880;DHT22;7010;48.200;16.332;2022-10-03T04:44:49;11.80;99.90
13880;DHT22;7010;48.200;16.332;2022-10-03T04:47:30;11.80;99.90
13880;DHT22;7010;48.200;16.332;2022-10-03T04:50:05;11.70;99.90
13880;DHT22;7010;48.200;16.332;2022-10-03T04:52:39;11.70;99.90
13880;DHT22;7010;48.200;16.332;2022-10-03T04:55:24;11.70;99.90
13880;DHT22;7010;48.200;16.332;2022-10-03T04:57:59;11.70;99.90
13880;DHT22;7010;48.200;16.332;2022-10-03T05:00:34;11.70;99.90
13880;DHT22;7010;48.200;16.332;2022-10-03T05:03:15;11.80;99.90
13880;DHT22;7010;48.200;16.332;2022-10-03T05:05:52;11.80;99.90
13880;DHT22;7010;48.200;16.332;2022-10-03T05:08:33;11.70;99.90
13880;DHT22;7010;48.200;16.332;2022-10-03T05:11:18;11.80;99.90
13880;DHT22;7010;48.200;16.332;2022-10-03T05:13:57;11.80;99.90
13880;DHT22;7010;48.200;16.332;2022-10-03T05:16:36;11.80;99.90
13880;DHT22;7010;48.200;16.332;2022-10-03T05:19:46;11.90;99.90
13880;DHT22;7010;48.200;16.332;2022-10-03T05:22:31;11.90;99.90
13880;DHT22;7010;48.200;16.332;2022-10-03T05:25:14;11.90;99.90
13880;DHT22;7010;48.200;16.332;2022-10-03T05:27:47;11.90;99.90
13880;DHT22;7010;48.200;16.332;2022-10-03T05:30:25;12.00;99.90
13880;DHT22;7010;48.200;16.332;2022-10-03T05:33:06;11.90;99.90
13880;DHT22;7010;48.200;16.332;2022-10-03T05:35:57;11.90;99.90
13880;DHT22;7010;48.200;16.332;2022-10-03T05:38:48;11.90;99.90
13880;DHT22;7010;48.200;16.332;2022-10-03T05:41:26;11.90;99.90
13880;DHT22;7010;48.200;16.332;2022-10-03T05:44:02;12.00;99.90
13880;DHT22;7010;48.200;16.332;2022-10-03T05:46:43;12.00;99.90
13880;DHT22;7010;48.200;16.332;2022-10-03T05:49:37;12.10;99.90
13880;DHT22;7010;48.200;16.332;2022-10-03T05:55:25;12.10;99.90
13880;DHT22;7010;48.200;16.332;2022-10-03T05:58:25;12.10;99.90
13880;DHT22;7010;48.200;16.332;2022-10-03T06:04:06;12.10;99.90
13880;DHT22;7010;48.200;16.332;2022-10-03T06:06:50;12.10;99.90
13880;DHT22;7010;48.200;16.332;2022-10-03T06:10:08;12.10;99.90
13880;DHT22;7010;48.200;16.332;2022-10-03T06:12:47;12.10;99.90
13880;DHT22;7010;48.200;16.332;2022-10-03T06:15:36;12.20;99.90
13880;DHT22;7010;48.200;16.332;2022-10-03T06:24:41;12.30;99.90
13880;DHT22;7010;48.200;16.332;2022-10-03T06:27:42;12.30;99.90
13880;DHT22;7010;48.200;16.332;2022-10-03T06:30:21;12.40;99.90
13880;DHT22;7010;48.200;16.332;2022-10-03T06:36:04;12.40;99.90
13880;DHT22;7010;48.200;16.332;2022-10-03T06:39:16;12.50;99.90
13880;DHT22;7010;48.200;16.332;2022-10-03T06:42:41;12.50;99.90
13880;DHT22;7010;48.200;16.332;2022-10-03T06:51:48;12.80;99.90
13880;DHT22;7010;48.200;16.332;2022-10-03T06:55:04;12.80;99.90
13880;DHT22;7010;48.200;16.332;2022-10-03T07:00:54;13.00;99.90
13880;DHT22;7010;48.200;16.332;2022-10-03T07:03:41;13.00;99.90
13880;DHT22;7010;48.200;16.332;2022-10-03T07:06:42;13.10;99.90
13880;DHT22;7010;48.200;16.332;2022-10-03T07:10:03;13.20;99.90
13880;DHT22;7010;48.200;16.332;2022-10-03T07:12:59;13.20;99.90
13880;DHT22;7010;48.200;16.332;2022-10-03T07:15:44;13.20;99.90
13880;DHT22;7010;48.200;16.332;2022-10-03T07:19:02;13.20;99.90
13880;DHT22;7010;48.200;16.332;2022-10-03T07:22:05;13.10;99.90
13880;DHT22;7010;48.200;16.332;2022-10-03T07:25:09;13.20;99.90
13880;DHT22;7010;48.200;16.332;2022-10-03T07:27:51;13.20;99.90
13880;DHT22;7010;48.200;16.332;2022-10-03T07:30:23;13.30;99.90
13880;DHT22;7010;48.200;16.332;2022-10-03T07:36:24;13.60;99.90
13880;DHT22;7010;48.200;16.332;2022-10-03T07:39:48;13.70;99.90
13880;DHT22;7010;48.200;16.332;2022-10-03T07:42:40;13.80;99.90
13880;DHT22;7010;48.200;16.332;2022-10-03T07:45:34;13.80;99.90
13880;DHT22;7010;48.200;16.332;2022-10-03T07:48:34;13.80;99.90
13880;DHT22;7010;48.200;16.332;2022-10-03T07:51:12;13.80;99.90
13880;DHT22;7010;48.200;16.332;2022-10-03T08:00:08;13.90;99.90
13880;DHT22;7010;48.200;16.332;2022-10-03T08:03:07;13.90;99.90
13880;DHT22;7010;48.200;16.332;2022-10-03T08:05:51;14.10;99.90
13880;DHT22;7010;48.200;16.332;2022-10-03T08:11:39;14.10;99.90
13880;DHT22;7010;48.200;16.332;2022-10-03T08:14:17;14.20;99.90
13880;DHT22;7010;48.200;16.332;2022-10-03T08:20:10;14.40;99.90
13880;DHT22;7010;48.200;16.332;2022-10-03T08:22:48;14.40;99.90
13880;DHT22;7010;48.200;16.332;2022-10-03T08:25:32;14.50;99.90
13880;DHT22;7010;48.200;16.332;2022-10-03T08:34:31;14.60;99.90
13880;DHT22;7010;48.200;16.332;2022-10-03T08:37:32;14.60;99.90
13880;DHT22;7010;48.200;16.332;2022-10-03T08:40:36;14.60;99.90
13880;DHT22;7010;48.200;16.332;2022-10-03T08:43:49;14.90;99.90
13880;DHT22;7010;48.200;16.332;2022-10-03T08:49:59;15.10;99.90
13880;DHT22;7010;48.200;16.332;2022-10-03T08:52:41;15.20;99.90
13880;DHT22;7010;48.200;16.332;2022-10-03T08:55:40;15.30;99.90
13880;DHT22;7010;48.200;16.332;2022-10-03T09:01:25;15.40;99.90
13880;DHT22;7010;48.200;16.332;2022-10-03T09:04:48;15.50;99.90
13880;DHT22;7010;48.200;16.332;2022-10-03T09:07:50;15.70;99.90
13880;DHT22;7010;48.200;16.332;2022-10-03T09:10:51;15.80;99.90
13880;DHT22;7010;48.200;16.332;2022-10-03T09:17:00;16.50;99.90
13880;DHT22;7010;48.200;16.332;2022-10-03T09:19:58;16.60;99.90
13880;DHT22;7010;48.200;16.332;2022-10-03T09:23:04;16.50;99.90
13880;DHT22;7010;48.200;16.332;2022-10-03T09:25:59;16.50;99.90
13880;DHT22;7010;48.200;16.332;2022-10-03T09:29:00;16.40;99.90
13880;DHT22;7010;48.200;16.332;2022-10-03T09:32:08;16.30;99.90
13880;DHT22;7010;48.200;16.332;2022-10-03T09:37:54;17.00;99.90
13880;DHT22;7010;48.200;16.332;2022-10-03T09:46:58;16.90;99.90
13880;DHT22;7010;48.200;16.332;2022-10-03T09:53:15;17.60;99.90
13880;DHT22;7010;48.200;16.332;2022-10-03T09:56:13;17.60;99.90
13880;DHT22;7010;48.200;16.332;2022-10-03T09:59:08;17.30;99.90
13880;DHT22;7010;48.200;16.332;2022-10-03T10:01:42;17.40;99.90
13880;DHT22;7010;48.200;16.332;2022-10-03T10:04:39;17.50;99.90
13880;DHT22;7010;48.200;16.332;2022-10-03T10:07:52;17.70;99.90
13880;DHT22;7010;48.200;16.332;2022-10-03T10:10:51;18.00;99.90
13880;DHT22;7010;48.200;16.332;2022-10-03T10:16:46;18.30;99.90
13880;DHT22;7010;48.200;16.332;2022-10-03T10:19:39;18.70;99.90
13880;DHT22;7010;48.200;16.332;2022-10-03T10:23:04;18.60;99.90
13880;DHT22;7010;48.200;16.332;2022-10-03T10:29:11;18.90;99.90
13880;DHT22;7010;48.200;16.332;2022-10-03T10:54:08;16.80;99.90
13880;DHT22;7010;48.200;16.332;2022-10-03T11:00:04;16.80;99.90
13880;DHT22;7010;48.200;16.332;2022-10-03T11:09:07;16.40;99.90
13880;DHT22;7010;48.200;16.332;2022-10-03T11:15:17;16.90;99.90
13880;DHT22;7010;48.200;16.332;2022-10-03T11:21:41;18.50;99.90
13880;DHT22;7010;48.200;16.332;2022-10-03T11:24:36;18.70;99.90
13880;DHT22;7010;48.200;16.332;2022-10-03T11:30:40;19.70;99.90
13880;DHT22;7010;48.200;16.332;2022-10-03T11:37:02;19.40;98.50
13880;DHT22;7010;48.200;16.332;2022-10-03T11:39:42;18.90;98.80
13880;DHT22;7010;48.200;16.332;2022-10-03T11:42:21;18.60;99.80
13880;DHT22;7010;48.200;16.332;2022-10-03T11:44:58;18.00;99.80
13880;DHT22;7010;48.200;16.332;2022-10-03T11:47:44;17.60;99.90
13880;DHT22;7010;48.200;16.332;2022-10-03T11:50:32;17.30;99.90
13880;DHT22;7010;48.200;16.332;2022-10-03T11:53:13;17.10;99.90
13880;DHT22;7010;48.200;16.332;2022-10-03T11:55:49;17.00;99.90
13880;DHT22;7010;48.200;16.332;2022-10-03T11:58:29;16.90;99.90
13880;DHT22;7010;48.200;16.332;2022-10-03T12:01:22;17.20;99.90
13880;DHT22;7010;48.200;16.332;2022-10-03T12:03:58;17.30;99.90
13880;DHT22;7010;48.200;16.332;2022-10-03T12:06:44;17.70;99.90
13880;DHT22;7010;48.200;16.332;2022-10-03T12:09:44;17.50;99.90
13880;DHT22;7010;48.200;16.332;2022-10-03T12:12:18;17.30;99.90
13880;DHT22;7010;48.200;16.332;2022-10-03T12:14:57;17.70;99.90
13880;DHT22;7010;48.200;16.332;2022-10-03T12:17:31;18.20;99.90
13880;DHT22;7010;48.200;16.332;2022-10-03T12:20:03;18.00;99.90
13880;DHT22;7010;48.200;16.332;2022-10-03T12:22:41;18.40;99.90
13880;DHT22;7010;48.200;16.332;2022-10-03T12:25:19;18.70;99.90
13880;DHT22;7010;48.200;16.332;2022-10-03T12:28:01;18.20;99.90
13880;DHT22;7010;48.200;16.332;2022-10-03T12:30:39;17.80;99.90
13880;DHT22;7010;48.200;16.332;2022-10-03T12:33:42;17.80;99.90
13880;DHT22;7010;48.200;16.332;2022-10-03T12:36:13;18.40;99.90
13880;DHT22;7010;48.200;16.332;2022-10-03T12:38:55;18.60;99.90
13880;DHT22;7010;48.200;16.332;2022-10-03T12:44:29;19.20;99.90
13880;DHT22;7010;48.200;16.332;2022-10-03T12:47:10;19.00;99.70
13880;DHT22;7010;48.200;16.332;2022-10-03T12:49:50;19.10;99.90
13880;DHT22;7010;48.200;16.332;2022-10-03T12:52:23;19.00;99.90
13880;DHT22;7010;48.200;16.332;2022-10-03T12:55:06;19.10;99.80
13880;DHT22;7010;48.200;16.332;2022-10-03T12:57:46;19.30;99.50
13880;DHT22;7010;48.200;16.332;2022-10-03T13:00:21;19.30;99.70
13880;DHT22;7010;48.200;16.332;2022-10-03T13:03:13;19.50;99.20
13880;DHT22;7010;48.200;16.332;2022-10-03T13:06:11;19.20;98.30
13880;DHT22;7010;48.200;16.332;2022-10-03T13:08:53;19.20;98.40
13880;DHT22;7010;48.200;16.332;2022-10-03T13:11:34;19.20;98.00
13880;DHT22;7010;48.200;16.332;2022-10-03T13:14:23;19.10;98.00
13880;DHT22;7010;48.200;16.332;2022-10-03T13:17:02;18.70;97.70
13880;DHT22;7010;48.200;16.332;2022-10-03T13:19:40;18.80;97.70
13880;DHT22;7010;48.200;16.332;2022-10-03T13:22:26;18.90;97.60
13880;DHT22;7010;48.200;16.332;2022-10-03T13:25:01;19.00;97.00
13880;DHT22;7010;48.200;16.332;2022-10-03T13:27:36;19.20;96.60
13880;DHT22;7010;48.200;16.332;2022-10-03T13:30:15;19.30;96.60
13880;DHT22;7010;48.200;16.332;2022-10-03T13:32:49;19.20;96.50
13880;DHT22;7010;48.200;16.332;2022-10-03T13:35:31;19.20;96.60
13880;DHT22;7010;48.200;16.332;2022-10-03T13:38:34;19.20;96.80
13880;DHT22;7010;48.200;16.332;2022-10-03T13:41:19;18.90;97.40
13880;DHT22;7010;48.200;16.332;2022-10-03T13:43:57;18.60;97.90
13880;DHT22;7010;48.200;16.332;2022-10-03T13:46:34;18.30;98.80
13880;DHT22;7010;48.200;16.332;2022-10-03T13:49:12;18.00;99.00
13880;DHT22;7010;48.200;16.332;2022-10-03T13:51:50;17.60;99.20
13880;DHT22;7010;48.200;16.332;2022-10-03T13:54:43;17.10;99.50
13880;DHT22;7010;48.200;16.332;2022-10-03T13:57:17;16.90;99.90
13880;DHT22;7010;48.200;16.332;2022-10-03T14:00:01;16.50;99.90
13880;DHT22;7010;48.200;16.332;2022-10-03T14:02:57;16.20;99.90
13880;DHT22;7010;48.200;16.332;2022-10-03T14:05:54;16.00;99.90
13880;DHT22;7010;48.200;16.332;2022-10-03T14:08:42;15.70;99.90
13880;DHT22;7010;48.200;16.332;2022-10-03T14:11:24;15.50;99.90
13880;DHT22;7010;48.200;16.332;2022-10-03T14:14:12;15.40;99.90
13880;DHT22;7010;48.200;16.332;2022-10-03T14:16:51;15.50;99.90
13880;DHT22;7010;48.200;16.332;2022-10-03T14:19:38;15.60;99.90
13880;DHT22;7010;48.200;16.332;2022-10-03T14:22:30;15.60;99.90
13880;DHT22;7010;48.200;16.332;2022-10-03T14:25:07;15.80;99.90
13880;DHT22;7010;48.200;16.332;2022-10-03T14:27:52;15.80;99.90
13880;DHT22;7010;48.200;16.332;2022-10-03T14:30:22;15.90;99.90
13880;DHT22;7010;48.200;16.332;2022-10-03T14:33:01;15.90;99.90
13880;DHT22;7010;48.200;16.332;2022-10-03T14:35:36;15.80;99.90
13880;DHT22;7010;48.200;16.332;2022-10-03T14:38:19;15.80;99.90
13880;DHT22;7010;48.200;16.332;2022-10-03T14:40:50;15.60;99.90
13880;DHT22;7010;48.200;16.332;2022-10-03T14:43:27;15.60;99.90
13880;DHT22;7010;48.200;16.332;2022-10-03T14:46:00;15.60;99.90
13880;DHT22;7010;48.200;16.332;2022-10-03T14:48:33;15.50;99.90
13880;DHT22;7010;48.200;16.332;2022-10-03T14:51:11;15.50;99.90
13880;DHT22;7010;48.200;16.332;2022-10-03T14:53:50;15.20;99.90
13880;DHT22;7010;48.200;16.332;2022-10-03T14:56:21;14.90;99.90
13880;DHT22;7010;48.200;16.332;2022-10-03T14:58:52;14.60;99.90
13880;DHT22;7010;48.200;16.332;2022-10-03T15:01:23;14.60;99.90
13880;DHT22;7010;48.200;16.332;2022-10-03T15:03:57;14.60;99.90
13880;DHT22;7010;48.200;16.332;2022-10-03T15:06:33;14.60;99.90
13880;DHT22;7010;48.200;16.332;2022-10-03T15:09:08;14.60;99.90
13880;DHT22;7010;48.200;16.332;2022-10-03T15:11:45;14.60;99.90
13880;DHT22;7010;48.200;16.332;2022-10-03T15:14:15;14.60;99.90
13880;DHT22;7010;48.200;16.332;2022-10-03T15:16:45;14.60;99.90
13880;DHT22;7010;48.200;16.332;2022-10-03T15:19:17;14.60;99.90
13880;DHT22;7010;48.200;16.332;2022-10-03T15:21:50;14.70;99.90
13880;DHT22;7010;48.200;16.332;2022-10-03T15:24:24;14.70;99.90
13880;DHT22;7010;48.200;16.332;2022-10-03T15:26:59;14.80;99.90
13880;DHT22;7010;48.200;16.332;2022-10-03T15:29:30;14.80;99.90
13880;DHT22;7010;48.200;16.332;2022-10-03T15:31:59;14.90;99.90
13880;DHT22;7010;48.200;16.332;2022-10-03T15:34:31;14.90;99.90
13880;DHT22;7010;48.200;16.332;2022-10-03T15:37:04;14.90;99.90
13880;DHT22;7010;48.200;16.332;2022-10-03T15:39:38;14.90;99.90
13880;DHT22;7010;48.200;16.332;2022-10-03T15:42:20;14.80;99.90
13880;DHT22;7010;48.200;16.332;2022-10-03T15:44:51;14.40;99.90
13880;DHT22;7010;48.200;16.332;2022-10-03T15:47:21;14.20;99.90
13880;DHT22;7010;48.200;16.332;2022-10-03T15:49:53;14.00;99.90
13880;DHT22;7010;48.200;16.332;2022-10-03T15:52:30;13.80;99.90
13880;DHT22;7010;48.200;16.332;2022-10-03T15:55:02;13.70;99.90
13880;DHT22;7010;48.200;16.332;2022-10-03T15:57:41;13.50;99.90
13880;DHT22;7010;48.200;16.332;2022-10-03T16:00:19;13.40;99.90
13880;DHT22;7010;48.200;16.332;2022-10-03T16:02:52;13.30;99.90
13880;DHT22;7010;48.200;16.332;2022-10-03T16:05:22;13.20;99.90
13880;DHT22;7010;48.200;16.332;2022-10-03T16:07:56;13.20;99.90
13880;DHT22;7010;48.200;16.332;2022-10-03T16:10:32;13.20;99.90
13880;DHT22;7010;48.200;16.332;2022-10-03T16:13:11;13.20;99.90
13880;DHT22;7010;48.200;16.332;2022-10-03T16:16:00;13.20;99.90
13880;DHT22;7010;48.200;16.332;2022-10-03T16:18:57;13.20;99.90
13880;DHT22;7010;48.200;16.332;2022-10-03T16:21:48;13.30;99.90
13880;DHT22;7010;48.200;16.332;2022-10-03T16:24:26;13.30;99.90
13880;DHT22;7010;48.200;16.332;2022-10-03T16:27:07;13.30;99.90
13880;DHT22;7010;48.200;16.332;2022-10-03T16:29:42;13.30;99.90
13880;DHT22;7010;48.200;16.332;2022-10-03T16:32:16;13.30;99.90
13880;DHT22;7010;48.200;16.332;2022-10-03T16:34:46;13.30;99.90
13880;DHT22;7010;48.200;16.332;2022-10-03T16:37:18;13.20;99.90
13880;DHT22;7010;48.200;16.332;2022-10-03T16:39:59;13.20;99.90
13880;DHT22;7010;48.200;16.332;2022-10-03T16:42:37;13.20;99.90
13880;DHT22;7010;48.200;16.332;2022-10-03T16:45:19;13.10;99.90
13880;DHT22;7010;48.200;16.332;2022-10-03T16:47:50;13.10;99.90
13880;DHT22;7010;48.200;16.332;2022-10-03T16:50:42;13.10;99.90
13880;DHT22;7010;48.200;16.332;2022-10-03T16:53:11;13.10;99.90
13880;DHT22;7010;48.200;16.332;2022-10-03T16:55:45;13.00;99.90
13880;DHT22;7010;48.200;16.332;2022-10-03T16:58:21;13.00;99.90
13880;DHT22;7010;48.200;16.332;2022-10-03T17:00:55;13.00;99.90
13880;DHT22;7010;48.200;16.332;2022-10-03T17:03:47;13.00;99.90
13880;DHT22;7010;48.200;16.332;2022-10-03T17:06:20;13.00;99.90
13880;DHT22;7010;48.200;16.332;2022-10-03T17:08:51;13.00;99.90
13880;DHT22;7010;48.200;16.332;2022-10-03T17:11:21;12.90;99.90
13880;DHT22;7010;48.200;16.332;2022-10-03T17:13:55;12.90;99.90
13880;DHT22;7010;48.200;16.332;2022-10-03T17:16:31;12.90;99.90
13880;DHT22;7010;48.200;16.332;2022-10-03T17:19:20;12.90;99.90
13880;DHT22;7010;48.200;16.332;2022-10-03T17:21:54;12.80;99.90
13880;DHT22;7010;48.200;16.332;2022-10-03T17:24:36;12.80;99.90
13880;DHT22;7010;48.200;16.332;2022-10-03T17:27:12;12.70;99.90
13880;DHT22;7010;48.200;16.332;2022-10-03T17:29:46;12.70;99.90
13880;DHT22;7010;48.200;16.332;2022-10-03T17:32:21;12.60;99.90
13880;DHT22;7010;48.200;16.332;2022-10-03T17:34:54;12.60;99.90
13880;DHT22;7010;48.200;16.332;2022-10-03T17:37:50;12.60;99.90
13880;DHT22;7010;48.200;16.332;2022-10-03T17:40:21;12.60;99.90
13880;DHT22;7010;48.200;16.332;2022-10-03T17:42:56;12.60;99.90
13880;DHT22;7010;48.200;16.332;2022-10-03T17:45:32;12.60;99.90
13880;DHT22;7010;48.200;16.332;2022-10-03T17:48:11;12.50;99.90
13880;DHT22;7010;48.200;16.332;2022-10-03T17:50:51;12.60;99.90
13880;DHT22;7010;48.200;16.332;2022-10-03T17:53:23;12.60;99.90
13880;DHT22;7010;48.200;16.332;2022-10-03T17:55:55;12.60;99.90
13880;DHT22;7010;48.200;16.332;2022-10-03T17:58:27;12.60;99.90
13880;DHT22;7010;48.200;16.332;2022-10-03T18:01:07;12.60;99.90
13880;DHT22;7010;48.200;16.332;2022-10-03T18:03:43;12.60;99.90
13880;DHT22;7010;48.200;16.332;2022-10-03T18:06:37;12.70;99.90
13880;DHT22;7010;48.200;16.332;2022-10-03T18:09:09;12.70;99.90
13880;DHT22;7010;48.200;16.332;2022-10-03T18:11:48;12.70;99.90
13880;DHT22;7010;48.200;16.332;2022-10-03T18:14:26;12.70;99.90
13880;DHT22;7010;48.200;16.332;2022-10-03T18:17:03;12.70;99.90
13880;DHT22;7010;48.200;16.332;2022-10-03T18:19:47;12.70;99.90
13880;DHT22;7010;48.200;16.332;2022-10-03T18:22:19;12.70;99.90
13880;DHT22;7010;48.200;16.332;2022-10-03T18:24:53;12.70;99.90
13880;DHT22;7010;48.200;16.332;2022-10-03T18:27:57;12.70;99.90
13880;DHT22;7010;48.200;16.332;2022-10-03T18:30:34;12.70;99.90
13880;DHT22;7010;48.200;16.332;2022-10-03T18:33:15;12.70;99.90
13880;DHT22;7010;48.200;16.332;2022-10-03T18:35:47;12.70;99.90
13880;DHT22;7010;48.200;16.332;2022-10-03T18:38:20;12.70;99.90
13880;DHT22;7010;48.200;16.332;2022-10-03T18:40:51;12.70;99.90
13880;DHT22;7010;48.200;16.332;2022-10-03T18:43:32;12.80;99.90
13880;DHT22;7010;48.200;16.332;2022-10-03T18:46:08;12.80;99.90
13880;DHT22;7010;48.200;16.332;2022-10-03T18:48:45;12.80;99.90
13880;DHT22;7010;48.200;16.332;2022-10-03T18:51:38;12.80;99.90
13880;DHT22;7010;48.200;16.332;2022-10-03T18:54:22;12.80;99.90
13880;DHT22;7010;48.200;16.332;2022-10-03T18:57:03;12.80;99.90
13880;DHT22;7010;48.200;16.332;2022-10-03T18:59:36;12.80;99.90
13880;DHT22;7010;48.200;16.332;2022-10-03T19:02:16;12.80;99.90
13880;DHT22;7010;48.200;16.332;2022-10-03T19:04:52;12.80;99.90
13880;DHT22;7010;48.200;16.332;2022-10-03T19:07:23;12.80;99.90
13880;DHT22;7010;48.200;16.332;2022-10-03T19:10:10;12.80;99.90
13880;DHT22;7010;48.200;16.332;2022-10-03T19:12:46;12.80;99.90
13880;DHT22;7010;48.200;16.332;2022-10-03T19:15:37;12.80;99.90
13880;DHT22;7010;48.200;16.332;2022-10-03T19:18:19;12.90;99.90
13880;DHT22;7010;48.200;16.332;2022-10-03T19:20:52;12.80;99.90
13880;DHT22;7010;48.200;16.332;2022-10-03T19:23:24;12.80;99.90
13880;DHT22;7010;48.200;16.332;2022-10-03T19:25:55;12.90;99.90
13880;DHT22;7010;48.200;16.332;2022-10-03T19:28:27;12.90;99.90
13880;DHT22;7010;48.200;16.332;2022-10-03T19:31:02;12.90;99.90
13880;DHT22;7010;48.200;16.332;2022-10-03T19:33:33;12.80;99.90
13880;DHT22;7010;48.200;16.332;2022-10-03T19:36:11;12.80;99.90
13880;DHT22;7010;48.200;16.332;2022-10-03T19:38:43;12.80;99.90